Auburn, NE

4:38 AM CST on December 07, 2016 (GMT -0600)
The Nincehelser Farm | | Change Station

Elev 1061 ft 40.50 °N, 95.78 °W | Updated 12 seconds ago

Overcast
Overcast
21.9 °F
Feels Like 22 °F
N
3.0
Wind Variable Wind from NNW

Today
High -- | Low -- °F
--% Chance of Precip.
Yesterday
High -- | Low -- °F
Precip. -- in
Pressure 30.19 in
Visibility 10.0 miles
Clouds Overcast 10000 ft
Windchill 22 °F
Dew Point 12 °F
Humidity 65%
Rainfall 0.00 in
Snow Depth Not available.
7:33 AM 4:56 PM
Waxing Crescent, 51% visible
METAR KAFK 071015Z AUTO 34008KT 10SM OVC100 M05/M14 A3019 RMK AO2 T10551137
Pressure 30.19 in
Visibility 10.0 miles
Clouds Overcast 10000 ft
Windchill 22 °F
Dew Point 12 °F
Humidity 65%
Rainfall 0.00 in
Snow Depth Not available.
7:33 AM 4:56 PM
Waxing Crescent, 51% visible
METAR KAFK 071015Z AUTO 34008KT 10SM OVC100 M05/M14 A3019 RMK AO2 T10551137

10-Day Weather Forecast

Almanac

Astronomy

Dec. 07, 2016 Rise Set
Actual Time
Civil Twilight
Nautical Twilight
Astronomical Twilight
Moon
Length of Visible Light
Length of Day
Tomorrow will be .
, % of the Moon is Illuminated

Today's Extremes

State Highs State Lows

Community

WunderPhotos

Upload Photos

1,956,111 photos uploaded!

WunderBlog® & News

Nearby

Air Quality

  Air Quality AQ Index Pollutant
Not available.

Snow Depth

Station Depth Elevation

Earthquake Activity

City Distance Mag. Time & Date
Minimum magnitude displayed is 2.5.

Coastal Water Temperatures

Place Temperature

Stations

Nearby Weather Stations

Station Location Temp. Windchill Dew Point Humidity Wind Precip. Elev Updated Type
                   

Watches & Warnings

There are currently no watches in effect.